Time;durP1;ratioP1;P1;durP2;ratioP2;P2;SDS_P1;SDS_P2;PMS_P1;PMS_P2;Temp;Humidity;BMP_temperature;BMP_pressure;BME280_temperature;BME280_humidity;BME280_pressure;Samples;Min_cycle;Max_cycle;Signal;HPM_P1;HPM_P2
2021/10/10 00:03:47;;;;;;;0.20;0.20;;;;;;;;;;10389897;28;20128;-65
2021/10/10 00:08:49;;;;;;;0.20;0.20;;;;;;;;;;10388918;28;20053;-65
2021/10/10 00:13:54;;;;;;;0.20;0.17;;;;;;;;;;10392200;28;20044;-69
2021/10/10 00:18:59;;;;;;;0.20;0.20;;;;;;;;;;10372272;28;20440;-70
2021/10/10 00:24:02;;;;;;;0.20;0.20;;;;;;;;;;10392063;28;20053;-69
2021/10/10 00:29:06;;;;;;;0.20;0.20;;;;;;;;;;10391911;28;20048;-69
2021/10/10 00:34:09;;;;;;;0.20;0.20;;;;;;;;;;10392999;28;20065;-69
2021/10/10 00:39:13;;;;;;;0.22;0.20;;;;;;;;;;10399557;28;20043;-69
2021/10/10 00:44:18;;;;;;;0.20;0.20;;;;;;;;;;10382539;28;20772;-69
2021/10/10 00:49:21;;;;;;;0.30;0.30;;;;;;;;;;10398651;28;20456;-69
2021/10/10 00:54:24;;;;;;;0.20;0.20;;;;;;;;;;10399324;28;20072;-69
2021/10/10 00:59:29;;;;;;;0.25;0.25;;;;;;;;;;10395766;28;20787;-69
2021/10/10 01:04:34;;;;;;;0.20;0.20;;;;;;;;;;10399670;28;20052;-69
2021/10/10 01:09:37;;;;;;;0.20;0.20;;;;;;;;;;10396109;28;20716;-69
2021/10/10 01:14:42;;;;;;;0.20;0.20;;;;;;;;;;10398437;28;20152;-69
2021/10/10 01:19:46;;;;;;;0.32;0.30;;;;;;;;;;10396529;28;20087;-69
2021/10/10 01:24:50;;;;;;;0.20;0.20;;;;;;;;;;10380686;28;20063;-70
2021/10/10 01:29:53;;;;;;;0.28;0.28;;;;;;;;;;10397156;28;20530;-70
2021/10/10 01:34:56;;;;;;;0.20;0.20;;;;;;;;;;10397031;28;20084;-69
2021/10/10 01:40:01;;;;;;;0.30;0.30;;;;;;;;;;10377142;28;20056;-69
2021/10/10 01:45:04;;;;;;;0.20;0.20;;;;;;;;;;10393087;28;20037;-69
2021/10/10 01:50:07;;;;;;;0.20;0.20;;;;;;;;;;10391127;28;20064;-69
2021/10/10 01:55:16;;;;;;;0.30;0.30;;;;;;;;;;10395026;28;20558;-69
2021/10/10 02:00:19;;;;;;;0.20;0.20;;;;;;;;;;10392784;28;20044;-69
2021/10/10 02:05:23;;;;;;;0.30;0.30;;;;;;;;;;10393955;28;20488;-69
2021/10/10 02:10:27;;;;;;;0.20;0.20;;;;;;;;;;10394991;28;20074;-69
2021/10/10 02:15:30;;;;;;;0.20;0.20;;;;;;;;;;10393406;28;20072;-69
2021/10/10 02:20:33;;;;;;;0.30;0.30;;;;;;;;;;10393088;28;20455;-69
2021/10/10 02:25:38;;;;;;;0.20;0.20;;;;;;;;;;10395613;28;20058;-69
2021/10/10 02:30:41;;;;;;;0.20;0.20;;;;;;;;;;10376924;28;20050;-69
2021/10/10 02:35:44;;;;;;;0.25;0.25;;;;;;;;;;10394376;28;20080;-69
2021/10/10 02:40:48;;;;;;;0.20;0.20;;;;;;;;;;10396465;28;20598;-69
2021/10/10 02:45:52;;;;;;;0.30;0.30;;;;;;;;;;10394251;28;20045;-69
2021/10/10 02:50:55;;;;;;;0.30;0.30;;;;;;;;;;10377193;28;20053;-69
2021/10/10 02:55:59;;;;;;;0.57;0.20;;;;;;;;;;10392313;28;20061;-69
2021/10/10 03:01:02;;;;;;;0.65;0.40;;;;;;;;;;10375214;28;20053;-69
2021/10/10 03:06:07;;;;;;;0.25;0.20;;;;;;;;;;10392136;28;20057;-69
2021/10/10 03:11:12;;;;;;;0.65;0.40;;;;;;;;;;10395020;28;20056;-69
2021/10/10 03:16:15;;;;;;;1.13;0.30;;;;;;;;;;10396461;28;20045;-69
2021/10/10 03:21:18;;;;;;;0.45;0.30;;;;;;;;;;10394479;28;20057;-69
2021/10/10 03:26:22;;;;;;;0.20;0.20;;;;;;;;;;10394181;28;20045;-69
2021/10/10 03:31:25;;;;;;;5.07;1.08;;;;;;;;;;10395070;28;20081;-69
2021/10/10 03:36:28;;;;;;;1.55;0.63;;;;;;;;;;10395138;28;20490;-69
2021/10/10 03:41:32;;;;;;;5.68;1.27;;;;;;;;;;10394993;28;20038;-69
2021/10/10 03:46:35;;;;;;;0.82;0.40;;;;;;;;;;10394192;28;20990;-69
2021/10/10 03:51:38;;;;;;;2.72;0.60;;;;;;;;;;10392468;28;20042;-69
2021/10/10 03:56:42;;;;;;;1.17;0.40;;;;;;;;;;10391924;28;20041;-69
2021/10/10 04:01:45;;;;;;;0.57;0.30;;;;;;;;;;10377913;28;20048;-69
2021/10/10 04:06:48;;;;;;;5.57;1.15;;;;;;;;;;10393545;28;20136;-69
2021/10/10 04:11:52;;;;;;;8.27;1.30;;;;;;;;;;10399080;28;20066;-69
2021/10/10 04:16:55;;;;;;;3.67;0.82;;;;;;;;;;10384438;28;20455;-69
2021/10/10 04:21:57;;;;;;;5.63;1.20;;;;;;;;;;10382899;28;20060;-69
2021/10/10 04:27:02;;;;;;;5.88;1.20;;;;;;;;;;10399405;28;20041;-69
2021/10/10 04:32:05;;;;;;;2.90;0.70;;;;;;;;;;10402837;28;20091;-69
2021/10/10 04:37:08;;;;;;;4.60;0.88;;;;;;;;;;10383376;28;20408;-69
2021/10/10 04:42:13;;;;;;;5.00;1.15;;;;;;;;;;10403446;28;20044;-69
2021/10/10 04:47:15;;;;;;;3.42;0.90;;;;;;;;;;10404092;28;20401;-69
2021/10/10 04:52:18;;;;;;;2.30;0.70;;;;;;;;;;10414308;28;20061;-69
2021/10/10 04:57:23;;;;;;;3.40;0.57;;;;;;;;;;10418792;28;20123;-69
2021/10/10 05:02:27;;;;;;;1.38;0.40;;;;;;;;;;10399870;28;20148;-69
2021/10/10 05:07:30;;;;;;;0.30;0.30;;;;;;;;;;10394287;28;20104;-69
2021/10/10 05:12:36;;;;;;;0.65;0.20;;;;;;;;;;10398889;28;20446;-69
2021/10/10 05:17:38;;;;;;;0.63;0.28;;;;;;;;;;10397166;28;20185;-69
2021/10/10 05:22:45;;;;;;;0.28;0.20;;;;;;;;;;10398768;28;20450;-69
2021/10/10 05:27:49;;;;;;;0.45;0.30;;;;;;;;;;10398224;28;20045;-69
2021/10/10 05:32:52;;;;;;;1.25;0.30;;;;;;;;;;10401417;28;20040;-69
2021/10/10 05:37:54;;;;;;;0.25;0.25;;;;;;;;;;10398012;28;20841;-69
2021/10/10 05:43:00;;;;;;;2.53;0.40;;;;;;;;;;10400295;28;20472;-70
2021/10/10 05:48:03;;;;;;;0.25;0.25;;;;;;;;;;10397996;28;20045;-67
2021/10/10 05:53:08;;;;;;;0.22;0.22;;;;;;;;;;10393072;28;20188;-67
2021/10/10 05:58:17;;;;;;;1.60;0.40;;;;;;;;;;9517773;28;10000994;-69
2021/10/10 06:03:20;;;;;;;5.50;0.98;;;;;;;;;;10436359;28;20875;-67
2021/10/10 06:08:24;;;;;;;2.13;0.45;;;;;;;;;;10078209;28;10000470;-69
2021/10/10 06:13:28;;;;;;;0.32;0.30;;;;;;;;;;9950974;28;10000816;-67
2021/10/10 06:18:31;;;;;;;3.80;0.80;;;;;;;;;;9583341;28;10000453;-69
2021/10/10 06:23:34;;;;;;;2.35;0.70;;;;;;;;;;10476825;28;20037;-66
2021/10/10 06:28:38;;;;;;;0.50;0.40;;;;;;;;;;10465729;28;20063;-67
2021/10/10 06:33:41;;;;;;;1.42;0.50;;;;;;;;;;10477596;28;20129;-68
2021/10/10 06:38:44;;;;;;;0.63;0.32;;;;;;;;;;10454068;28;20135;-69
2021/10/10 06:43:48;;;;;;;2.15;0.63;;;;;;;;;;10434821;28;20150;-70
2021/10/10 06:48:51;;;;;;;0.47;0.30;;;;;;;;;;10434125;28;20049;-68
2021/10/10 06:53:53;;;;;;;1.38;0.55;;;;;;;;;;10434315;28;20040;-69
2021/10/10 06:58:57;;;;;;;2.50;0.57;;;;;;;;;;10434102;28;20060;-69
2021/10/10 07:04:00;;;;;;;0.20;0.20;;;;;;;;;;10415742;28;20156;-69
2021/10/10 07:09:03;;;;;;;0.30;0.30;;;;;;;;;;10429475;28;20052;-65
2021/10/10 07:14:07;;;;;;;0.20;0.20;;;;;;;;;;10431609;28;20163;-67
2021/10/10 07:19:10;;;;;;;0.30;0.30;;;;;;;;;;10433337;28;20049;-68
2021/10/10 07:29:35;;;;;;;0.20;0.20;;;;;;;;;;10432587;28;20053;-66
2021/10/10 07:34:38;;;;;;;0.30;0.30;;;;;;;;;;10433050;28;20036;-69
2021/10/10 07:39:40;;;;;;;0.30;0.30;;;;;;;;;;10432797;28;20059;-68
2021/10/10 07:44:47;;;;;;;0.22;0.22;;;;;;;;;;10433739;28;20051;-69
2021/10/10 07:49:51;;;;;;;0.20;0.20;;;;;;;;;;10439199;28;20052;-68
2021/10/10 07:54:53;;;;;;;0.20;0.20;;;;;;;;;;10443758;28;20048;-66
2021/10/10 07:59:57;;;;;;;0.22;0.22;;;;;;;;;;10442586;28;20051;-67
2021/10/10 08:05:00;;;;;;;0.22;0.22;;;;;;;;;;10445216;28;20051;-68
2021/10/10 08:10:04;;;;;;;0.20;0.20;;;;;;;;;;10444856;28;20134;-68
2021/10/10 08:15:09;;;;;;;0.20;0.20;;;;;;;;;;10444906;28;20055;-68
2021/10/10 08:20:12;;;;;;;0.20;0.20;;;;;;;;;;10442130;28;20057;-68
2021/10/10 08:25:15;;;;;;;0.30;0.30;;;;;;;;;;10440748;28;20506;-68
2021/10/10 08:30:21;;;;;;;0.30;0.30;;;;;;;;;;10442758;28;20059;-69
2021/10/10 08:35:23;;;;;;;0.45;0.30;;;;;;;;;;10441749;28;20399;-69
2021/10/10 08:40:32;;;;;;;0.30;0.30;;;;;;;;;;10440594;28;20147;-68
2021/10/10 08:45:37;;;;;;;0.20;0.20;;;;;;;;;;10439471;28;20112;-67
2021/10/10 08:50:40;;;;;;;0.25;0.25;;;;;;;;;;10422420;28;20049;-66
2021/10/10 08:55:44;;;;;;;0.28;0.28;;;;;;;;;;10422310;28;20045;-67
2021/10/10 09:00:52;;;;;;;0.20;0.20;;;;;;;;;;10439606;28;20060;-67
2021/10/10 09:05:57;;;;;;;0.20;0.20;;;;;;;;;;10435657;28;20041;-67
2021/10/10 09:11:01;;;;;;;0.20;0.20;;;;;;;;;;10402827;28;20103;-67
2021/10/10 09:16:07;;;;;;;0.65;0.25;;;;;;;;;;10398479;28;20084;-67
2021/10/10 09:21:16;;;;;;;0.20;0.20;;;;;;;;;;10402567;28;20526;-67
2021/10/10 09:26:24;;;;;;;0.20;0.20;;;;;;;;;;10401010;28;20099;-67
2021/10/10 09:31:28;;;;;;;0.20;0.20;;;;;;;;;;10400385;28;20049;-68
2021/10/10 09:36:32;;;;;;;0.20;0.20;;;;;;;;;;10401050;28;20487;-67
2021/10/10 09:41:39;;;;;;;0.30;0.30;;;;;;;;;;10399199;28;20033;-67
2021/10/10 09:46:43;;;;;;;1.00;0.20;;;;;;;;;;10405050;28;20100;-67
2021/10/10 09:51:47;;;;;;;0.20;0.20;;;;;;;;;;10399400;28;20041;-67
2021/10/10 09:57:04;;;;;;;0.20;0.20;;;;;;;;;;10403908;28;20049;-67
2021/10/10 10:02:07;;;;;;;0.15;0.15;;;;;;;;;;10393716;28;20173;-67
2021/10/10 10:07:14;;;;;;;0.20;0.20;;;;;;;;;;10400020;28;20104;-68
2021/10/10 10:12:17;;;;;;;0.10;0.10;;;;;;;;;;10434652;28;20037;-69
2021/10/10 10:17:23;;;;;;;0.20;0.20;;;;;;;;;;10434684;28;20049;-67
2021/10/10 10:22:33;;;;;;;0.30;0.20;;;;;;;;;;10435461;28;20033;-67
2021/10/10 10:27:38;;;;;;;0.10;0.10;;;;;;;;;;10438109;28;20040;-67
2021/10/10 10:32:41;;;;;;;0.10;0.10;;;;;;;;;;10437159;28;20403;-69
2021/10/10 10:37:50;;;;;;;0.10;0.10;;;;;;;;;;10436165;28;20064;-71
2021/10/10 10:42:55;;;;;;;0.10;0.10;;;;;;;;;;10445993;28;20388;-65
2021/10/10 10:47:59;;;;;;;0.10;0.10;;;;;;;;;;10446332;28;20553;-68
2021/10/10 10:53:04;;;;;;;0.13;0.10;;;;;;;;;;10432768;28;20406;-68
2021/10/10 10:58:10;;;;;;;0.10;0.10;;;;;;;;;;10433255;28;20044;-70
2021/10/10 11:03:14;;;;;;;0.17;0.17;;;;;;;;;;10432332;28;20132;-68
2021/10/10 11:08:35;;;;;;;0.10;0.10;;;;;;;;;;10434579;28;20495;-69
2021/10/10 11:13:40;;;;;;;1.17;0.20;;;;;;;;;;10433612;28;20040;-69
2021/10/10 11:18:45;;;;;;;0.10;0.10;;;;;;;;;;10413265;28;20419;-66
2021/10/10 11:23:51;;;;;;;0.20;0.20;;;;;;;;;;10414274;28;20041;-70
2021/10/10 11:28:56;;;;;;;0.30;0.10;;;;;;;;;;10431504;28;20142;-70
2021/10/10 11:34:01;;;;;;;0.10;0.10;;;;;;;;;;10436268;28;20043;-69
2021/10/10 11:39:06;;;;;;;0.10;0.10;;;;;;;;;;10420644;28;20744;-68
2021/10/10 11:44:11;;;;;;;0.10;0.10;;;;;;;;;;10438531;28;20055;-69
2021/10/10 11:49:28;;;;;;;0.20;0.10;;;;;;;;;;10419936;28;20052;-68
2021/10/10 11:54:41;;;;;;;0.10;0.10;;;;;;;;;;10437510;28;20545;-68
2021/10/10 11:59:50;;;;;;;0.10;0.10;;;;;;;;;;10436003;28;20106;-68
2021/10/10 12:05:05;;;;;;;0.10;0.10;;;;;;;;;;10436909;28;20039;-68
2021/10/10 12:10:10;;;;;;;0.10;0.10;;;;;;;;;;10437909;28;20110;-68
2021/10/10 12:15:19;;;;;;;0.10;0.10;;;;;;;;;;10439302;28;20041;-68
2021/10/10 12:20:23;;;;;;;0.10;0.10;;;;;;;;;;10439842;28;20049;-68
2021/10/10 12:25:29;;;;;;;0.15;0.10;;;;;;;;;;10436857;28;20180;-68
2021/10/10 12:30:36;;;;;;;0.10;0.10;;;;;;;;;;10440745;28;20517;-68
2021/10/10 12:35:40;;;;;;;0.10;0.10;;;;;;;;;;10446455;28;20049;-68
2021/10/10 12:40:44;;;;;;;0.00;0.00;;;;;;;;;;10447085;28;20047;-68
2021/10/10 12:46:00;;;;;;;0.10;0.10;;;;;;;;;;10447891;28;20411;-68
2021/10/10 12:51:15;;;;;;;0.08;0.08;;;;;;;;;;10444971;28;20036;-68
2021/10/10 12:56:18;;;;;;;0.10;0.10;;;;;;;;;;10449458;28;20444;-67
2021/10/10 13:01:26;;;;;;;0.28;0.10;;;;;;;;;;10447781;28;20127;-68
2021/10/10 13:06:48;;;;;;;0.00;0.00;;;;;;;;;;10446400;28;20048;-67
2021/10/10 13:11:52;;;;;;;0.00;0.00;;;;;;;;;;10446569;28;20055;-67
2021/10/10 13:16:56;;;;;;;0.10;0.00;;;;;;;;;;10446922;28;20051;-67
2021/10/10 13:22:12;;;;;;;0.00;0.00;;;;;;;;;;10445910;28;20044;-68
2021/10/10 13:27:21;;;;;;;0.10;0.10;;;;;;;;;;10447318;28;20132;-68
2021/10/10 13:32:32;;;;;;;0.10;0.10;;;;;;;;;;10445997;28;20495;-68
2021/10/10 13:37:37;;;;;;;0.10;0.10;;;;;;;;;;10443081;28;20045;-68
2021/10/10 13:42:41;;;;;;;0.10;0.10;;;;;;;;;;10443981;28;20057;-70
2021/10/10 13:47:50;;;;;;;0.10;0.10;;;;;;;;;;10429983;28;20517;-69
2021/10/10 13:52:53;;;;;;;0.10;0.10;;;;;;;;;;10446520;28;20045;-69
2021/10/10 13:58:00;;;;;;;0.00;0.00;;;;;;;;;;10447981;28;20041;-69
2021/10/10 14:03:04;;;;;;;0.08;0.08;;;;;;;;;;10467062;28;20047;-69
2021/10/10 14:08:08;;;;;;;0.00;0.00;;;;;;;;;;10457128;28;20106;-69
2021/10/10 14:13:12;;;;;;;0.10;0.00;;;;;;;;;;10482642;28;20060;-69
2021/10/10 14:18:21;;;;;;;0.10;0.10;;;;;;;;;;10485712;28;20137;-69
2021/10/10 14:23:32;;;;;;;0.35;0.08;;;;;;;;;;10485272;28;20058;-69
2021/10/10 14:28:36;;;;;;;0.00;0.00;;;;;;;;;;10485286;28;20129;-69
2021/10/10 14:33:48;;;;;;;0.10;0.10;;;;;;;;;;10485342;28;20040;-69
2021/10/10 14:38:52;;;;;;;0.10;0.10;;;;;;;;;;10467267;28;20057;-70
2021/10/10 14:44:06;;;;;;;0.00;0.00;;;;;;;;;;10469563;28;20040;-69
2021/10/10 14:49:10;;;;;;;0.10;0.10;;;;;;;;;;10483641;28;20431;-69
2021/10/10 14:54:13;;;;;;;0.00;0.00;;;;;;;;;;10484291;28;20131;-69
2021/10/10 14:59:16;;;;;;;0.10;0.10;;;;;;;;;;10483952;28;20050;-69
2021/10/10 15:04:26;;;;;;;0.00;0.00;;;;;;;;;;10484883;28;20044;-69
2021/10/10 15:09:35;;;;;;;0.00;0.00;;;;;;;;;;10483371;28;20415;-69
2021/10/10 15:14:38;;;;;;;0.08;0.08;;;;;;;;;;10484384;28;20064;-70
2021/10/10 15:19:42;;;;;;;0.00;0.00;;;;;;;;;;10482637;28;20051;-69
2021/10/10 15:24:49;;;;;;;0.00;0.00;;;;;;;;;;10484268;28;20110;-70
2021/10/10 15:30:06;;;;;;;0.10;0.10;;;;;;;;;;10482480;28;20424;-69
2021/10/10 15:35:31;;;;;;;0.00;0.00;;;;;;;;;;10480260;28;20040;-69
2021/10/10 15:40:34;;;;;;;0.10;0.10;;;;;;;;;;10481279;28;20148;-69
2021/10/10 15:46:07;;;;;;;0.05;0.05;;;;;;;;;;10483533;28;20046;-70
2021/10/10 15:51:13;;;;;;;0.10;0.10;;;;;;;;;;10480036;28;20040;-69
2021/10/10 15:56:16;;;;;;;0.00;0.00;;;;;;;;;;10481176;28;20131;-69
2021/10/10 16:01:44;;;;;;;0.10;0.10;;;;;;;;;;10484005;28;20048;-69
2021/10/10 16:06:52;;;;;;;0.08;0.08;;;;;;;;;;10482903;28;20040;-69
2021/10/10 16:11:56;;;;;;;0.10;0.10;;;;;;;;;;10486056;28;20052;-70
2021/10/10 16:16:59;;;;;;;0.00;0.00;;;;;;;;;;10483109;28;20857;-68
2021/10/10 16:22:06;;;;;;;0.10;0.10;;;;;;;;;;10484857;28;20075;-68
2021/10/10 16:27:10;;;;;;;0.10;0.10;;;;;;;;;;10482490;28;20033;-69
2021/10/10 16:32:12;;;;;;;0.10;0.10;;;;;;;;;;10467883;28;20155;-69
2021/10/10 16:37:21;;;;;;;0.10;0.10;;;;;;;;;;10478190;28;20063;-65
2021/10/10 16:42:25;;;;;;;0.10;0.10;;;;;;;;;;10480844;28;20438;-67
2021/10/10 16:47:28;;;;;;;0.00;0.00;;;;;;;;;;10482980;28;20055;-66
2021/10/10 16:52:32;;;;;;;0.10;0.10;;;;;;;;;;10472658;28;20048;-68
2021/10/10 16:57:35;;;;;;;0.28;0.20;;;;;;;;;;10483296;28;20043;-69
2021/10/10 17:02:40;;;;;;;0.20;0.20;;;;;;;;;;10468965;28;20050;-69
2021/10/10 17:07:45;;;;;;;0.10;0.10;;;;;;;;;;10476897;28;20052;-71
2021/10/10 17:12:49;;;;;;;0.10;0.10;;;;;;;;;;10487460;28;20102;-68
2021/10/10 17:17:53;;;;;;;0.05;0.05;;;;;;;;;;10479502;28;20061;-67
2021/10/10 17:22:58;;;;;;;0.10;0.10;;;;;;;;;;10468907;28;20059;-68
2021/10/10 17:28:00;;;;;;;0.10;0.10;;;;;;;;;;10470603;28;20135;-67
2021/10/10 17:33:06;;;;;;;0.10;0.10;;;;;;;;;;10482072;28;20119;-68
2021/10/10 17:38:14;;;;;;;0.15;0.15;;;;;;;;;;10481301;28;20485;-68
2021/10/10 17:43:21;;;;;;;0.10;0.10;;;;;;;;;;10481588;28;20048;-67
2021/10/10 17:48:24;;;;;;;0.15;0.10;;;;;;;;;;10487033;28;20559;-68
2021/10/10 17:53:31;;;;;;;0.20;0.20;;;;;;;;;;10481247;28;20135;-68
2021/10/10 17:58:49;;;;;;;0.10;0.10;;;;;;;;;;10483092;28;20489;-68
2021/10/10 18:04:04;;;;;;;0.10;0.10;;;;;;;;;;10481387;28;20058;-68
2021/10/10 18:14:43;;;;;;;0.10;0.10;;;;;;;;;;10434279;28;20071;-68
2021/10/10 18:19:59;;;;;;;0.25;0.10;;;;;;;;;;10480332;28;20383;-68
2021/10/10 18:25:04;;;;;;;0.10;0.10;;;;;;;;;;10483122;28;20103;-68
2021/10/10 18:30:08;;;;;;;0.20;0.20;;;;;;;;;;10476361;28;20478;-68
2021/10/10 18:35:12;;;;;;;0.10;0.10;;;;;;;;;;10482296;28;20056;-68
2021/10/10 18:40:30;;;;;;;0.10;0.10;;;;;;;;;;10478743;28;20078;-68
2021/10/10 18:45:33;;;;;;;0.15;0.10;;;;;;;;;;10481513;28;20032;-68
2021/10/10 18:50:36;;;;;;;0.10;0.10;;;;;;;;;;10479337;28;20052;-68
2021/10/10 18:55:40;;;;;;;0.10;0.10;;;;;;;;;;10479651;28;20036;-68
2021/10/10 19:00:44;;;;;;;0.10;0.10;;;;;;;;;;10478928;28;20051;-68
2021/10/10 19:05:48;;;;;;;0.10;0.10;;;;;;;;;;10478221;28;20056;-68
2021/10/10 19:10:57;;;;;;;0.10;0.10;;;;;;;;;;10480380;28;20145;-68
2021/10/10 19:16:06;;;;;;;0.10;0.10;;;;;;;;;;10478767;28;20051;-69
2021/10/10 19:21:10;;;;;;;0.10;0.10;;;;;;;;;;10483307;28;20110;-69
2021/10/10 19:26:15;;;;;;;0.17;0.17;;;;;;;;;;10488582;28;20115;-67
2021/10/10 19:31:18;;;;;;;0.10;0.10;;;;;;;;;;10473525;28;20390;-66
2021/10/10 19:36:27;;;;;;;0.10;0.10;;;;;;;;;;10462869;28;20044;-68
2021/10/10 19:41:34;;;;;;;0.32;0.20;;;;;;;;;;10470459;28;20048;-66
2021/10/10 19:46:37;;;;;;;0.10;0.10;;;;;;;;;;10466266;28;20037;-67
2021/10/10 19:51:40;;;;;;;0.17;0.17;;;;;;;;;;10388623;28;20454;-67
2021/10/10 19:56:45;;;;;;;0.10;0.10;;;;;;;;;;10387242;28;20034;-67
2021/10/10 20:01:48;;;;;;;0.20;0.20;;;;;;;;;;10388551;28;20044;-67
2021/10/10 20:06:51;;;;;;;0.10;0.10;;;;;;;;;;10387086;28;20065;-67
2021/10/10 20:11:56;;;;;;;0.20;0.20;;;;;;;;;;10429045;28;20716;-67
2021/10/10 20:17:00;;;;;;;0.10;0.10;;;;;;;;;;10427961;28;20041;-68
2021/10/10 20:22:03;;;;;;;0.20;0.20;;;;;;;;;;10412610;28;20045;-67
2021/10/10 20:27:08;;;;;;;0.15;0.15;;;;;;;;;;10432715;28;20547;-67
2021/10/10 20:32:12;;;;;;;0.20;0.20;;;;;;;;;;10413896;28;20056;-67
2021/10/10 20:37:16;;;;;;;0.13;0.13;;;;;;;;;;10430662;28;20448;-68
2021/10/10 20:42:34;;;;;;;0.20;0.20;;;;;;;;;;10431628;28;20131;-67
2021/10/10 20:47:38;;;;;;;0.10;0.10;;;;;;;;;;10431942;28;20063;-67
2021/10/10 20:52:41;;;;;;;0.13;0.13;;;;;;;;;;10434213;28;20609;-67
2021/10/10 20:57:45;;;;;;;0.10;0.10;;;;;;;;;;10420318;28;20490;-67
2021/10/10 21:02:49;;;;;;;0.20;0.20;;;;;;;;;;10437404;28;20052;-67
2021/10/10 21:07:52;;;;;;;0.10;0.10;;;;;;;;;;10437393;28;20052;-67
2021/10/10 21:12:56;;;;;;;0.10;0.10;;;;;;;;;;10438087;28;20522;-67
2021/10/10 21:18:00;;;;;;;0.17;0.17;;;;;;;;;;10437973;28;20049;-67
2021/10/10 21:23:03;;;;;;;0.10;0.10;;;;;;;;;;10435906;28;20064;-67
2021/10/10 21:28:11;;;;;;;0.20;0.20;;;;;;;;;;10419074;28;20053;-67
2021/10/10 21:33:33;;;;;;;0.20;0.20;;;;;;;;;;10434495;28;20187;-67
2021/10/10 21:38:36;;;;;;;;;;;;;;;;;;10436499;28;20055;-68
2021/10/10 21:43:41;;;;;;;0.20;0.20;;;;;;;;;;10435263;28;19930;-67
2021/10/10 21:48:44;;;;;;;0.15;0.15;;;;;;;;;;10436227;28;20037;-67
2021/10/10 21:53:48;;;;;;;0.10;0.10;;;;;;;;;;10433164;28;20586;-67
2021/10/10 21:58:52;;;;;;;0.20;0.20;;;;;;;;;;10435973;28;20150;-67
2021/10/10 22:03:56;;;;;;;0.20;0.20;;;;;;;;;;10435584;28;20052;-67
2021/10/10 22:08:59;;;;;;;0.10;0.10;;;;;;;;;;10433761;28;20060;-67
2021/10/10 22:14:03;;;;;;;0.10;0.10;;;;;;;;;;10418654;28;20063;-67
2021/10/10 22:19:06;;;;;;;0.10;0.10;;;;;;;;;;10417498;28;20053;-67
2021/10/10 22:24:12;;;;;;;0.10;0.10;;;;;;;;;;10435817;28;20638;-67
2021/10/10 22:34:39;;;;;;;0.10;0.10;;;;;;;;;;10434885;28;20507;-67
2021/10/10 22:39:43;;;;;;;0.52;0.15;;;;;;;;;;10433595;28;20037;-67
2021/10/10 22:44:47;;;;;;;0.10;0.10;;;;;;;;;;10416433;28;20146;-67
2021/10/10 22:49:50;;;;;;;0.20;0.20;;;;;;;;;;10416037;28;20055;-67
2021/10/10 22:54:54;;;;;;;0.10;0.10;;;;;;;;;;10433988;28;20056;-67
2021/10/10 23:00:00;;;;;;;0.20;0.20;;;;;;;;;;10433728;28;20071;-67
2021/10/10 23:05:02;;;;;;;0.20;0.20;;;;;;;;;;10433676;28;20055;-67
2021/10/10 23:10:06;;;;;;;0.20;0.20;;;;;;;;;;10429857;28;20910;-67
2021/10/10 23:15:11;;;;;;;0.10;0.10;;;;;;;;;;10432003;28;20858;-67
2021/10/10 23:20:14;;;;;;;0.15;0.15;;;;;;;;;;10430428;28;20135;-67
2021/10/10 23:25:17;;;;;;;0.20;0.20;;;;;;;;;;10433001;28;20045;-67
2021/10/10 23:30:23;;;;;;;0.10;0.10;;;;;;;;;;10429102;28;20041;-67
2021/10/10 23:35:26;;;;;;;0.20;0.20;;;;;;;;;;10432522;28;20529;-66
2021/10/10 23:40:29;;;;;;;0.30;0.20;;;;;;;;;;10430277;28;20045;-67
2021/10/10 23:45:33;;;;;;;0.20;0.20;;;;;;;;;;10431064;28;20061;-67
2021/10/10 23:50:36;;;;;;;0.20;0.20;;;;;;;;;;10430389;28;20118;-67
2021/10/10 23:55:39;;;;;;;0.20;0.20;;;;;;;;;;10429986;28;20506;-67
